Latest Coastal Weather Observations for Moruya Airport

IDN60701

Issued at 3:32 am EDT Tuesday 3 March 2015 (issued every 10 minutes, with the page automatically refreshed every 10 minutes)

About coastal observations | Map of coastal stations | Coastal observations for NSW | Marine services | Other Formats
Station Details ID: 069148 Name: MORUYA AIRPORT AWS Lat: -35.90 Lon: 150.14 Height: 4.0 m
Data from the previous 72 hours. | See also: Recent months for locations in New South Wales
Date/Time
EDT
Temp

°C
Wind Pressure Rain
since 9am
mm
Weather Cloud Vis
km
Sea
Height
m
Swell
Dir
 
Speed
knots
Gust
knots
hPa Trend Height
m
Period
s
Dir
03/03:30am 15.9 WNW 4 5 1014.2 - 0.0 - - 10 - - - -
03/03:00am 15.9 NW 4 6 1014.4 - 0.0 - Mostly cloudy 10 - - - -
03/02:30am 16.0 NW 3 5 1014.5 - 0.0 - - 10 - - - -
03/02:00am 16.2 NW 4 6 1015.3 - 0.0 - - 10 - - - -
03/01:30am 16.2 NW 5 6 1015.6 - 0.0 - - 10 - - - -
03/01:00am 16.1 NW 4 5 1016.0 - 0.0 - - 10 - - - -
03/12:30am 15.9 WNW 1 5 1016.6 - 0.0 - - 10 - - - -
 
Date/Time
EDT
Temp

°C
Wind Pressure Rain
since 9am
mm
Weather Cloud Vis
km
Sea
Height
m
Swell
Dir
 
Speed
knots
Gust
knots
hPa Trend Height
m
Period
s
Dir
02/11:30pm 16.0 WNW 3 5 1017.3 - 0.0 - - 10 - - - -
02/11:00pm 16.3 CALM 0 0 1017.2 - 0.0 - - 10 - - - -
02/10:30pm 16.1 CALM 0 0 1017.2 - 0.0 - - 10 - - - -
02/10:00pm 16.5 WNW 3 4 1017.2 - 0.0 - - 10 - - - -
02/09:30pm 16.8 NNW 4 5 1017.1 - 0.0 - - 10 - - - -
02/09:00pm 17.6 NNW 5 6 1016.8 - 0.0 - - 10 - - - -
02/08:30pm 17.8 NNW 4 6 1016.6 - 0.0 - Partly cloudy 10 - - - -
02/08:00pm 18.5 NNW 4 6 1016.4 - 0.0 - - 10 - - - -
02/07:30pm 19.6 NNW 4 6 1016.3 - 0.0 - - 10 - - - -
02/07:00pm 20.8 NNE 6 8 1016.4 - 0.0 - - 10 - - - -
02/06:30pm 21.0 NNE 5 7 1016.4 - 0.0 - Partly cloudy 10 - - - -
02/06:00pm 21.2 NNE 5 6 1016.7 - 0.0 - Partly cloudy 10 - - - -
02/05:30pm 21.0 NE 5 7 1016.4 - 0.0 - - 10 - - - -
02/05:00pm 21.8 ENE 6 8 1016.8 - 0.0 - - 10 - - - -
02/04:30pm 22.0 NE 8 10 1016.8 - 0.0 - - 10 - - - -
02/04:00pm 21.7 ENE 8 9 1017.1 - 0.0 - - 10 - - - -
02/03:30pm 21.7 ENE 8 10 1017.3 - 0.0 - Partly cloudy 10 - - - -
02/03:00pm 21.3 E 8 9 1017.8 - 0.0 - Partly cloudy 10 - - - -
02/02:30pm 21.0 E 9 10 1018.0 - 0.0 - Partly cloudy 10 - - - -
02/02:00pm 21.3 E 9 10 1018.4 - 0.0 - Partly cloudy 10 - - - -
02/01:30pm 21.7 E 9 10 1018.5 - 0.0 - - 10 - - - -
02/01:00pm 21.6 E 8 10 1018.7 - 0.0 - - 10 - - - -
02/12:30pm 21.1 ESE 8 11 1019.0 - 0.0 - - 10 - - - -
02/12:00pm 21.7 ESE 7 10 1019.4 - 0.0 - - 10 - - - -
02/11:30am 21.6 ESE 6 7 1019.6 - 0.0 - - 10 - - - -
02/11:00am 21.6 SSW 2 6 1019.9 - 0.0 - - 10 - - - -
02/10:30am 20.4 SSW 5 9 1019.8 - 0.0 - - 10 - - - -
02/10:00am 18.9 SW 6 7 1019.7 - 0.0 - - 10 - - - -
02/09:30am 18.4 SW 6 7 1020.0 - 0.0 - - 10 - - - -
02/09:00am 16.8 SW 6 8 1019.9 - 5.4 - - 10 - - - -
02/08:30am 15.8 W 4 7 1019.7 - 5.4 - - 10 - - - -
02/08:00am 14.3 W 5 7 1019.6 - 5.4 - - 10 - - - -
02/07:30am 12.9 W 5 7 1019.5 - 5.4 - - 10 - - - -
02/07:00am 11.7 WSW 5 7 1019.1 - 5.4 - - 10 - - - -
02/06:30am 12.2 WSW 5 7 1018.8 - 5.4 - - 10 - - - -
02/06:00am 12.8 W 6 9 1018.2 - 5.4 - - 10 - - - -
02/05:30am 12.7 W 6 9 1018.1 - 5.4 - - 10 - - - -
02/05:00am 12.6 W 7 9 1017.9 - 5.4 - - 10 - - - -
02/04:30am 13.0 W 9 13 1018.3 - 5.4 - - 10 - - - -
02/04:00am 12.7 W 8 12 1017.8 - 5.4 - - 10 - - - -
02/03:30am 12.4 W 4 6 1017.7 - 5.4 - - 10 - - - -
02/03:00am 12.8 W 7 10 1018.2 - 5.4 - - 10 - - - -
02/02:30am 12.1 W 5 6 1018.4 - 5.4 - - 10 - - - -
02/02:00am 11.6 WSW 5 7 1018.5 - 5.4 - - 10 - - - -
02/01:30am 12.0 W 5 6 1018.3 - 5.4 - - 10 - - - -
02/01:00am 12.1 WSW 1 5 1018.2 - 5.4 - - 10 - - - -
02/12:30am 12.7 WNW 5 6 1018.0 - 5.4 - - 10 - - - -
02/12:00am 13.2 W 4 5 1017.9 - 5.4 - - 10 - - - -
 
Date/Time
EDT
Temp

°C
Wind Pressure Rain
since 9am
mm
Weather Cloud Vis
km
Sea
Height
m
Swell
Dir
 
Speed
knots
Gust
knots
hPa Trend Height
m
Period
s
Dir
01/11:30pm 14.0 W 4 6 1017.8 - 5.4 - - 10 - - - -
01/11:00pm 15.1 SW 4 6 1017.7 - 5.4 - - 10 - - - -
01/10:30pm 16.3 SSW 5 8 1017.3 - 5.4 - - 10 - - - -
01/10:00pm 17.3 SSW 6 10 1017.1 - 5.4 - - 10 - - - -
01/09:30pm 17.4 SSW 8 11 1016.4 - 5.4 - - 10 - - - -
01/09:00pm 17.8 SSW 5 6 1015.8 - 5.4 - Mostly clear 10 - - - -
01/08:30pm 19.0 SSW 6 8 1015.2 - 5.4 - Cloudy 10 - - - -
01/08:00pm 19.3 S 7 9 1014.6 - 5.4 - Cloudy 10 - - - -
01/07:30pm 19.4 S 8 12 1013.6 - 5.4 - Partly cloudy 10 - - - -
01/07:00pm 19.9 S 11 15 1012.8 - 5.4 - Partly cloudy 10 - - - -
01/06:30pm 20.2 S 10 14 1011.9 - 5.4 - Cloudy 10 - - - -
01/06:00pm 19.8 S 7 10 1011.2 - 5.4 - Cloudy 10 - - - -
01/05:30pm 19.7 S 12 18 1010.9 - 5.4 - Cloudy 10 - - - -
01/05:00pm 19.4 SSW 10 14 1010.2 - 5.4 - Cloudy 10 - - - -
01/04:30pm 18.8 S 13 17 1010.0 - 5.4 - Cloudy 10 - - - -
01/04:00pm 18.8 S 14 23 1009.7 - 5.4 - Cloudy 10 - - - -
01/03:30pm 18.6 S 18 23 1008.9 - 5.4 - Cloudy 10 - - - -
01/03:00pm 18.3 S 15 22 1008.7 - 5.4 Recent precip. Mostly clear 10 - - - -
01/02:45pm 18.3 S 15 25 1008.5 - 5.4 - Partly cloudy 10 - - - -
01/02:30pm 18.0 S 14 22 1008.6 - 5.2 - Partly cloudy 10 - - - -
01/02:29pm 18.1 S 13 22 1008.6 - 5.2 - Partly cloudy 10 - - - -
01/02:05pm 17.9 S 17 25 1009.0 - 3.4 - Partly cloudy 5 - - - -
01/02:00pm 18.1 S 16 25 1008.9 - 3.0 - Partly cloudy 7 - - - -
01/01:57pm 18.3 S 15 25 1008.9 - 2.8 - Partly cloudy 9 - - - -
01/01:40pm 19.3 S 13 19 1007.5 - 2.4 - Partly cloudy 5 - - - -
01/01:30pm 20.9 S 15 22 1008.5 - 0.0 - Partly cloudy 10 - - - -
01/01:06pm 22.7 S 15 27 1007.5 - 0.0 - - 10 - - - -
01/01:00pm 22.7 SSE 14 21 1007.4 - 0.0 - - 10 - - - -
01/12:30pm 24.8 SSE 15 22 1007.3 - 0.0 - Partly cloudy 10 - - - -
01/12:00pm 25.0 S 18 25 1007.2 - 0.0 - Mostly clear 10 - - - -
01/11:30am 25.0 S 12 17 1006.4 - 0.0 - - 10 - - - -
01/11:00am 23.7 SSW 9 13 1006.0 - 0.0 - - 10 - - - -
01/10:30am 23.2 SW 7 10 1005.6 - 0.0 - - 10 - - - -
01/10:00am 23.2 WSW 6 8 1005.0 - 0.0 - - 10 - - - -
01/09:30am 22.8 SW 5 7 1004.9 - 0.0 - Partly cloudy 10 - - - -
01/09:00am 23.1 SW 6 10 1004.8 - 0.0 - Mostly clear 10 - - - -
01/08:30am 23.0 WSW 5 7 1004.7 - 0.0 - - 10 - - - -
01/08:03am 21.4 SW 4 6 1004.6 - 0.0 - - 10 - - - -
01/08:00am 21.0 WSW 4 6 1004.7 - 0.0 - - 10 - - - -
01/07:44am 21.0 WSW 5 8 1004.9 - 0.0 - - 2 - - - -
01/07:30am 20.6 WSW 8 12 1004.7 - 0.0 - - 10 - - - -
01/07:00am 19.7 SSW 9 14 1003.9 - 0.0 - - 10 - - - -
01/06:49am 19.1 SW 7 11 1003.6 - 0.0 - - 10 - - - -
01/06:30am 17.8 WNW 1 5 1002.7 - 0.0 - - 4 - - - -
01/06:00am 18.6 N 3 4 1002.2 - 0.0 - Mostly clear 5 - - - -
01/05:30am 17.7 CALM 0 3 1001.7 - 0.0 - - 2 - - - -
01/05:00am 18.0 N 1 4 1001.8 - 0.0 - - 0.8 - - - -
01/04:30am 18.7 CALM 0 0 1002.1 - 0.0 - - 2 - - - -
01/04:00am 19.4 NNE 4 5 1002.2 - 0.0 - - 3 - - - -
01/03:56am 19.5 NNE 4 4 1002.2 - 0.0 - - 5 - - - -
01/03:47am 19.6 NNE 5 5 1002.3 - 0.0 - - 10 - - - -
01/03:30am 18.8 NNW 4 6 1002.6 - 0.0 - - 2 - - - -
01/03:00am 18.5 CALM 0 0 1002.8 - 0.0 - - 2 - - - -
01/02:30am 18.4 CALM 0 0 1003.1 - 0.0 - - 3 - - - -
01/02:00am 18.6 CALM 0 0 1003.6 - 0.0 - - 4 - - - -
01/01:30am 18.8 CALM 0 0 1004.0 - 0.0 - - 4 - - - -
01/01:00am 18.6 CALM 0 0 1004.3 - 0.0 - - 2 - - - -
01/12:30am 18.6 CALM 0 0 1004.7 - 0.0 - - 5 - - - -
01/12:15am 18.8 CALM 0 0 1004.8 - 0.0 - - 5 - - - -
01/12:14am 18.8 CALM 0 0 1004.8 - 0.0 - - 6 - - - -
01/12:00am 19.0 CALM 0 0 1004.9 - 0.0 - - 5 - - - -
 
Date/Time
EDT
Temp

°C
Wind Pressure Rain
since 9am
mm
Weather Cloud Vis
km
Sea
Height
m
Swell
Dir
 
Speed
knots
Gust
knots
hPa Trend Height
m
Period
s
Dir
28/11:54pm 19.0 CALM 0 0 1004.9 - 0.0 - - 5 - - - -
28/11:30pm 19.4 CALM 0 0 1005.0 - 0.0 - - 6 - - - -
28/11:00pm 19.6 CALM 0 0 1005.4 - 0.0 - - 8 - - - -
28/10:34pm 19.4 CALM 0 0 1005.7 - 0.0 - - 6 - - - -
28/10:30pm 19.2 CALM 0 0 1005.7 - 0.0 - - 7 - - - -
28/10:18pm 19.5 CALM 0 0 1005.7 - 0.0 - - 5 - - - -
28/10:00pm 19.5 CALM 0 0 1005.8 - 0.0 - - 7 - - - -
28/09:30pm 20.0 CALM 0 0 1006.0 - 0.0 - - 8 - - - -
28/09:00pm 20.8 CALM 0 0 1006.0 - 0.0 - - 6 - - - -
28/08:36pm 21.4 NE 2 3 1005.9 - 0.0 - - 6 - - - -
28/08:30pm 21.5 NE 3 4 1005.8 - 0.0 - - 6 - - - -
28/08:24pm 21.6 NE 4 4 1005.7 - 0.0 - - 5 - - - -
28/08:09pm 22.0 NE 5 7 1005.6 - 0.0 - - 10 - - - -
28/08:00pm 22.6 NE 6 9 1005.5 - 0.0 - - 9 - - - -
28/07:51pm 22.5 NE 7 10 1005.4 - 0.0 - - 5 - - - -
28/07:30pm 22.8 NE 9 11 1005.3 - 0.0 - - 10 - - - -
28/07:00pm 23.0 NE 10 14 1005.0 - 0.0 - - 10 - - - -
28/06:30pm 23.9 NE 10 12 1004.9 - 0.0 - - 10 - - - -
28/06:00pm 24.7 NE 9 13 1004.9 - 0.0 - - 10 - - - -
28/05:30pm 25.0 NNE 13 17 1004.7 - 0.0 - - 10 - - - -
28/05:00pm 25.1 NNE 13 16 1005.1 - 0.0 - - 10 - - - -
28/04:30pm 25.1 NE 13 17 1005.3 - 0.0 - - 10 - - - -
28/04:00pm 25.1 NNE 14 19 1005.3 - 0.0 - - 10 - - - -
28/03:30pm 25.3 NE 14 18 1005.8 - 0.0 - - 10 - - - -
28/03:00pm 25.2 NE 13 18 1006.2 - 0.0 - - 10 - - - -
28/02:30pm 25.1 NE 13 16 1006.7 - 0.0 - - 10 - - - -
28/02:00pm 25.2 NE 11 14 1007.1 - 0.0 - - 10 - - - -
28/01:30pm 24.6 NE 10 12 1007.6 - 0.0 - - 10 - - - -
28/01:00pm 24.1 NE 9 11 1008.1 - 0.0 - - 10 - - - -
28/12:30pm 24.1 ENE 8 10 1008.5 - 0.0 - - 8 - - - -
28/12:00pm 23.6 NE 5 7 1009.0 - 0.0 - Mostly clear 10 - - - -
28/11:46am 22.5 NE 6 7 1009.2 - 0.0 - - 9 - - - -
28/11:30am 21.7 NNE 5 7 1009.4 - 0.0 - - 5 - - - -
28/11:27am 21.6 NNE 5 7 1009.3 - 0.0 - - 5 - - - -
28/11:00am 21.5 ENE 7 9 1009.0 - 0.0 - - 8 - - - -
28/10:30am 22.4 ENE 4 6 1009.6 - 0.0 - - 9 - - - -
28/10:00am 21.4 ENE 5 6 1009.9 - 0.0 - - 8 - - - -
28/09:36am 21.6 ENE 4 5 1009.9 - 0.0 - - 6 - - - -
28/09:30am 21.1 ENE 4 5 1010.0 - 0.0 - - 7 - - - -
28/09:20am 21.1 ENE 3 5 1009.9 - 0.0 - - 5 - - - -
28/09:00am 20.5 CALM 0 0 1010.0 - 0.0 - Mostly clear 8 - - - -
28/08:51am 19.7 CALM 0 0 1009.9 - 0.0 - - 7 - - - -
28/08:30am 19.2 CALM 0 0 1009.8 - 0.0 - - 6 - - - -
28/08:00am 18.6 NNE 1 3 1009.6 - 0.0 - - 4 - - - -
28/07:52am 18.7 CALM 0 0 1009.5 - 0.0 - - 5 - - - -
28/07:37am 18.3 CALM 0 0 1009.6 - 0.0 - - 7 - - - -
28/07:30am 18.2 CALM 0 0 1009.6 - 0.0 - - 6 - - - -
28/07:00am 17.7 CALM 0 0 1009.3 - 0.0 - - 5 - - - -
28/06:30am 17.8 CALM 0 0 1009.0 - 0.0 - - 5 - - - -
28/06:21am 17.9 CALM 0 3 1008.9 - 0.0 - - 7 - - - -
28/06:00am 17.9 CALM 0 3 1008.9 - 0.0 - Mostly cloudy 5 - - - -
28/05:30am 17.6 CALM 0 0 1008.8 - 0.0 - - 5 - - - -
28/05:00am 17.5 CALM 0 0 1008.7 - 0.0 - - 5 - - - -
28/04:30am 17.4 CALM 0 0 1008.9 - 0.0 - - 4 - - - -
28/04:00am 17.5 CALM 0 0 1009.1 - 0.0 - - 3 - - - -

Other Formats:

Comma delimited format used in spreadsheet applications
http://www.bom.gov.au/fwo/IDN60701/IDN60701.95937.axf

JavaScript Object Notation format (JSON) in row-major order
http://www.bom.gov.au/fwo/IDN60701/IDN60701.95937.json